createdAt,value
2019-02-14T00:01:39.483Z,21.20
2019-02-14T00:04:07.724Z,21.20
2019-02-14T00:06:35.992Z,21.20
2019-02-14T00:09:04.815Z,21.20
2019-02-14T00:11:33.074Z,21.20
2019-02-14T00:14:01.291Z,21.20
2019-02-14T00:16:29.534Z,21.20
2019-02-14T00:18:57.766Z,21.20
2019-02-14T00:21:26.020Z,21.10
2019-02-14T00:23:54.246Z,21.10
2019-02-14T00:26:22.494Z,21.10
2019-02-14T00:28:50.721Z,21.10
2019-02-14T00:31:18.966Z,21.10
2019-02-14T00:33:47.194Z,21.10
2019-02-14T00:36:15.438Z,21.10
2019-02-14T00:38:43.669Z,21.10
2019-02-14T00:41:11.922Z,21.20
2019-02-14T00:43:40.149Z,21.10
2019-02-14T00:46:08.410Z,21.10
2019-02-14T00:48:36.645Z,21.10
2019-02-14T00:51:04.885Z,21.10
2019-02-14T00:53:33.120Z,21.10
2019-02-14T00:56:01.370Z,21.10
2019-02-14T00:58:29.606Z,21.10
2019-02-14T01:00:57.849Z,21.10
2019-02-14T01:03:26.085Z,21.10
2019-02-14T01:05:54.320Z,21.10
2019-02-14T01:08:22.566Z,21.10
2019-02-14T01:10:50.794Z,21.10
2019-02-14T01:13:19.038Z,21.10
2019-02-14T01:15:47.445Z,21.10
2019-02-14T01:18:15.689Z,21.10
2019-02-14T01:20:43.925Z,21.10
2019-02-14T01:23:12.169Z,21.10
2019-02-14T01:25:40.440Z,21.10
2019-02-14T01:28:08.747Z,21.10
2019-02-14T01:30:36.978Z,21.10
2019-02-14T01:33:05.230Z,21.10
2019-02-14T01:35:41.661Z,21.10
2019-02-14T01:38:03.433Z,21.10
2019-02-14T01:40:31.667Z,21.00
2019-02-14T01:42:59.910Z,21.00
2019-02-14T01:45:28.141Z,21.10
2019-02-14T01:47:56.407Z,21.00
2019-02-14T01:50:24.628Z,21.00
2019-02-14T01:52:52.874Z,21.00
2019-02-14T01:55:21.117Z,21.10
2019-02-14T01:57:49.362Z,21.00
2019-02-14T02:00:17.865Z,21.00
2019-02-14T02:02:46.105Z,21.10
2019-02-14T02:05:14.333Z,21.10
2019-02-14T02:07:42.581Z,21.00
2019-02-14T02:10:11.853Z,21.00
2019-02-14T02:12:40.102Z,21.00
2019-02-14T02:15:11.151Z,21.00
2019-02-14T02:17:39.401Z,21.00
2019-02-14T02:20:09.388Z,21.00
2019-02-14T02:22:37.634Z,21.00
2019-02-14T02:25:08.597Z,21.00
2019-02-14T02:27:36.841Z,21.00
2019-02-14T02:30:08.336Z,21.00
2019-02-14T02:32:36.894Z,21.00
2019-02-14T02:35:06.383Z,21.00
2019-02-14T02:37:34.678Z,21.00
2019-02-14T02:40:03.166Z,21.00
2019-02-14T02:42:31.394Z,21.00
2019-02-14T02:44:59.653Z,21.00
2019-02-14T02:47:27.882Z,21.00
2019-02-14T02:49:56.126Z,21.00
2019-02-14T02:52:24.930Z,21.00
2019-02-14T02:54:53.174Z,21.00
2019-02-14T02:57:21.413Z,21.00
2019-02-14T02:59:49.657Z,21.00
2019-02-14T03:02:17.889Z,21.00
2019-02-14T03:04:46.138Z,21.00
2019-02-14T03:07:14.365Z,21.00
2019-02-14T03:09:42.609Z,21.00
2019-02-14T03:12:10.845Z,21.00
2019-02-14T03:14:39.086Z,21.00
2019-02-14T03:17:07.365Z,21.00
2019-02-14T03:19:36.214Z,21.00
2019-02-14T03:22:04.445Z,21.00
2019-02-14T03:24:32.700Z,21.00
2019-02-14T03:27:00.921Z,21.00
2019-02-14T03:29:29.166Z,21.00
2019-02-14T03:31:57.402Z,21.00
2019-02-14T03:34:25.678Z,21.00
2019-02-14T03:36:53.974Z,21.00
2019-02-14T03:39:22.269Z,21.00
2019-02-14T03:41:50.501Z,21.00
2019-02-14T03:44:18.746Z,21.00
2019-02-14T03:46:46.978Z,21.00
2019-02-14T03:49:15.785Z,21.00
2019-02-14T03:51:44.261Z,21.00
2019-02-14T03:54:12.493Z,21.00
2019-02-14T03:56:40.737Z,21.00
2019-02-14T03:59:08.965Z,21.00
2019-02-14T04:01:37.288Z,21.00
2019-02-14T04:04:05.517Z,21.00
2019-02-14T04:06:33.756Z,21.00
2019-02-14T04:09:01.990Z,21.00
2019-02-14T04:11:30.238Z,21.00
2019-02-14T04:13:58.462Z,21.00
2019-02-14T04:16:26.706Z,21.00
2019-02-14T04:18:54.937Z,20.90
2019-02-14T04:21:23.177Z,20.90
2019-02-14T04:23:51.411Z,20.90
2019-02-14T04:26:20.526Z,20.90
2019-02-14T04:28:48.765Z,21.00
2019-02-14T04:31:17.019Z,20.90
2019-02-14T04:33:45.249Z,20.90
2019-02-14T04:36:13.489Z,21.00
2019-02-14T04:38:41.725Z,21.00
2019-02-14T04:41:09.970Z,21.00
2019-02-14T04:43:38.207Z,21.00
2019-02-14T04:46:06.450Z,21.00
2019-02-14T04:48:34.677Z,20.90
2019-02-14T04:51:02.917Z,20.90
2019-02-14T04:53:31.149Z,20.90
2019-02-14T04:55:59.958Z,20.90
2019-02-14T04:58:28.188Z,20.90
2019-02-14T05:00:56.434Z,21.00
2019-02-14T05:03:24.675Z,20.90
2019-02-14T05:05:52.909Z,20.90
2019-02-14T05:08:21.146Z,20.90
2019-02-14T05:10:49.406Z,20.90
2019-02-14T05:13:17.637Z,20.90
2019-02-14T05:15:45.871Z,20.90
2019-02-14T05:18:14.112Z,20.90
2019-02-14T05:20:42.357Z,21.00
2019-02-14T05:23:10.597Z,20.90
2019-02-14T05:25:38.833Z,20.90
2019-02-14T05:28:07.073Z,20.90
2019-02-14T05:30:35.309Z,20.90
2019-02-14T05:33:03.617Z,20.90
2019-02-14T05:35:32.418Z,20.90
2019-02-14T05:38:00.657Z,20.90
2019-02-14T05:40:28.963Z,20.90
2019-02-14T05:42:57.207Z,20.90
2019-02-14T05:45:25.435Z,20.90
2019-02-14T05:47:53.727Z,20.90
2019-02-14T05:50:21.989Z,20.90
2019-02-14T05:52:50.229Z,20.90
2019-02-14T05:55:19.034Z,21.00
2019-02-14T05:57:47.277Z,20.90
2019-02-14T06:00:17.418Z,20.90
2019-02-14T06:02:45.669Z,20.90
2019-02-14T06:05:13.905Z,20.90
2019-02-14T06:07:42.143Z,20.90
2019-02-14T06:10:11.213Z,20.90
2019-02-14T06:12:39.461Z,20.90
2019-02-14T06:15:12.830Z,20.90
2019-02-14T06:17:41.073Z,20.90
2019-02-14T06:20:12.692Z,20.90
2019-02-14T06:22:41.609Z,20.90
2019-02-14T06:25:11.078Z,20.90
2019-02-14T06:27:39.317Z,20.90
2019-02-14T06:30:10.290Z,20.90
2019-02-14T06:32:38.519Z,20.90
2019-02-14T06:35:08.201Z,20.90
2019-02-14T06:37:36.433Z,20.90
2019-02-14T06:40:07.574Z,20.90
2019-02-14T06:42:35.807Z,20.90
2019-02-14T06:45:05.798Z,20.90
2019-02-14T06:47:34.041Z,20.90
2019-02-14T06:50:02.862Z,20.90
2019-02-14T06:52:31.092Z,20.90
2019-02-14T06:54:59.330Z,20.90
2019-02-14T06:57:27.566Z,20.90
2019-02-14T06:59:56.513Z,20.90
2019-02-14T07:02:24.749Z,20.90
2019-02-14T07:04:52.991Z,20.90
2019-02-14T07:07:21.261Z,20.90
2019-02-14T07:09:49.505Z,20.90
2019-02-14T07:12:17.737Z,20.90
2019-02-14T07:14:45.982Z,20.90
2019-02-14T07:17:14.214Z,20.90
2019-02-14T07:19:42.453Z,20.90
2019-02-14T07:22:10.687Z,20.90
2019-02-14T07:24:38.930Z,20.90
2019-02-14T07:27:07.162Z,20.90
2019-02-14T07:29:35.978Z,20.90
2019-02-14T07:32:04.214Z,20.90
2019-02-14T07:34:32.466Z,20.90
2019-02-14T07:37:00.703Z,20.90
2019-02-14T07:39:29.617Z,20.90
2019-02-14T07:41:58.750Z,20.90
2019-02-14T07:44:26.990Z,20.90
2019-02-14T07:46:55.222Z,20.90
2019-02-14T07:49:23.467Z,20.90
2019-02-14T07:51:51.703Z,20.90
2019-02-14T07:54:19.940Z,20.90
2019-02-14T07:56:48.170Z,20.90
2019-02-14T07:59:16.413Z,20.90
2019-02-14T08:01:45.487Z,20.90
2019-02-14T08:04:13.738Z,20.90
2019-02-14T08:06:41.969Z,20.90
2019-02-14T08:09:10.208Z,20.90
2019-02-14T08:11:38.442Z,20.90
2019-02-14T08:14:06.685Z,20.90
2019-02-14T08:16:34.915Z,20.90
2019-02-14T08:19:03.722Z,20.80
2019-02-14T08:21:31.965Z,20.80
2019-02-14T08:24:00.200Z,20.90
2019-02-14T08:26:28.446Z,20.80
2019-02-14T08:28:56.676Z,20.90
2019-02-14T08:31:25.486Z,20.90
2019-02-14T08:33:53.717Z,20.90
2019-02-14T08:36:21.966Z,20.90
2019-02-14T08:38:50.197Z,20.90
2019-02-14T08:41:19.014Z,20.90
2019-02-14T08:43:47.246Z,20.90
2019-02-14T08:46:15.490Z,20.90
2019-02-14T08:48:43.721Z,20.90
2019-02-14T08:51:11.966Z,20.90
2019-02-14T08:53:40.206Z,20.90
2019-02-14T08:56:08.449Z,20.90
2019-02-14T08:58:36.682Z,20.90
2019-02-14T09:01:04.931Z,20.90
2019-02-14T09:03:33.162Z,21.00
2019-02-14T09:06:01.418Z,20.90
2019-02-14T09:08:29.641Z,20.90
2019-02-14T09:10:57.890Z,20.90
2019-02-14T09:13:26.122Z,20.90
2019-02-14T09:15:54.382Z,20.90
2019-02-14T09:18:22.605Z,20.90
2019-02-14T09:20:50.858Z,20.90
2019-02-14T09:23:19.087Z,20.90
2019-02-14T09:25:47.334Z,20.90
2019-02-14T09:28:15.561Z,20.90
2019-02-14T09:30:43.803Z,20.90
2019-02-14T09:33:12.034Z,20.90
2019-02-14T09:35:40.539Z,20.90
2019-02-14T09:38:08.765Z,20.90
2019-02-14T09:40:37.014Z,20.90
2019-02-14T09:43:05.258Z,20.90
2019-02-14T09:45:33.505Z,20.90
2019-02-14T09:48:02.378Z,21.00
2019-02-14T09:50:30.617Z,20.90
2019-02-14T09:52:58.840Z,20.90
2019-02-14T09:55:27.087Z,20.90
2019-02-14T09:57:55.323Z,20.90
2019-02-14T10:00:23.822Z,20.90
2019-02-14T10:02:52.070Z,21.00
2019-02-14T10:05:20.297Z,20.90
2019-02-14T10:07:48.554Z,21.00
2019-02-14T10:10:25.989Z,20.90
2019-02-14T10:12:55.468Z,21.00
2019-02-14T10:15:23.706Z,21.00
2019-02-14T10:17:52.279Z,21.00
2019-02-14T10:20:20.509Z,21.00
2019-02-14T10:22:48.834Z,21.00
2019-02-14T10:25:17.066Z,21.00
2019-02-14T10:27:45.313Z,21.00
2019-02-14T10:30:16.554Z,21.00
2019-02-14T10:32:44.789Z,21.00
2019-02-14T10:35:13.021Z,21.00
2019-02-14T10:37:41.270Z,21.10
2019-02-14T10:40:17.372Z,21.10
2019-02-14T10:42:45.610Z,21.10
2019-02-14T10:45:21.281Z,21.10
2019-02-14T10:47:49.527Z,21.10
2019-02-14T10:50:17.782Z,21.10
2019-02-14T10:52:46.079Z,21.10
2019-02-14T10:55:17.020Z,21.10
2019-02-14T10:57:45.569Z,21.10
2019-02-14T11:00:22.150Z,21.10
2019-02-14T11:02:50.627Z,21.10
2019-02-14T11:05:18.928Z,21.10
2019-02-14T11:07:47.173Z,21.10
2019-02-14T11:10:15.946Z,21.20
2019-02-14T11:12:44.236Z,21.20
2019-02-14T11:15:15.298Z,21.20
2019-02-14T11:17:43.550Z,21.20
2019-02-14T11:20:13.627Z,21.20
2019-02-14T11:22:41.866Z,21.20
2019-02-14T11:25:13.142Z,21.20
2019-02-14T11:27:42.058Z,21.20
2019-02-14T11:30:12.831Z,21.20
2019-02-14T11:32:41.393Z,21.20
2019-02-14T11:35:11.249Z,21.20
2019-02-14T11:37:39.495Z,21.30
2019-02-14T11:40:12.598Z,21.20
2019-02-14T11:42:40.848Z,21.30
2019-02-14T11:45:12.078Z,21.30
2019-02-14T11:47:40.323Z,21.30
2019-02-14T11:50:10.516Z,21.30
2019-02-14T11:52:38.745Z,21.30
2019-02-14T11:55:08.514Z,21.30
2019-02-14T11:57:36.761Z,21.30
2019-02-14T12:00:18.092Z,21.30
2019-02-14T12:02:54.767Z,21.30
2019-02-14T12:05:16.287Z,21.30
2019-02-14T12:07:44.515Z,21.30
2019-02-14T12:10:13.797Z,21.30
2019-02-14T12:12:42.270Z,21.30
2019-02-14T12:15:14.156Z,21.30
2019-02-14T12:17:42.409Z,21.40
2019-02-14T12:20:12.923Z,21.40
2019-02-14T12:22:46.540Z,21.40
2019-02-14T12:25:15.189Z,21.40
2019-02-14T12:27:44.028Z,21.40
2019-02-14T12:30:14.046Z,21.40
2019-02-14T12:32:42.273Z,21.40
2019-02-14T12:35:10.519Z,21.40
2019-02-14T12:37:38.745Z,21.40
2019-02-14T12:40:09.990Z,21.40
2019-02-14T12:42:38.221Z,21.40
2019-02-14T12:45:20.360Z,21.40
2019-02-14T12:47:42.272Z,21.40
2019-02-14T12:50:10.521Z,21.40
2019-02-14T12:52:38.801Z,21.40
2019-02-14T12:55:07.075Z,21.40
2019-02-14T12:57:35.311Z,21.50
2019-02-14T13:00:04.821Z,21.50
2019-02-14T13:02:33.053Z,21.50
2019-02-14T13:05:01.293Z,21.50
2019-02-14T13:07:29.531Z,21.50
2019-02-14T13:09:57.770Z,21.50
2019-02-14T13:12:26.002Z,21.50
2019-02-14T13:14:54.262Z,21.50
2019-02-14T13:17:22.499Z,21.50
2019-02-14T13:19:51.306Z,21.60
2019-02-14T13:22:19.537Z,21.60
2019-02-14T13:24:47.782Z,21.60
2019-02-14T13:27:16.010Z,21.60
2019-02-14T13:29:44.249Z,21.60
2019-02-14T13:32:13.669Z,21.60
2019-02-14T13:34:42.121Z,21.60
2019-02-14T13:37:10.922Z,21.60
2019-02-14T13:39:39.622Z,21.60
2019-02-14T13:42:08.436Z,21.60
2019-02-14T13:44:36.666Z,21.60
2019-02-14T13:47:04.914Z,21.60
2019-02-14T13:49:33.151Z,21.60
2019-02-14T13:52:01.395Z,21.60
2019-02-14T13:54:29.637Z,21.70
2019-02-14T13:56:57.878Z,21.70
2019-02-14T13:59:26.113Z,21.70
2019-02-14T14:01:54.362Z,21.70
2019-02-14T14:04:22.608Z,21.70
2019-02-14T14:06:50.850Z,21.70
2019-02-14T14:09:19.081Z,21.70
2019-02-14T14:11:47.905Z,21.70
2019-02-14T14:14:16.705Z,21.70
2019-02-14T14:16:45.518Z,21.70
2019-02-14T14:19:14.318Z,21.70
2019-02-14T14:21:42.557Z,21.70
2019-02-14T14:24:10.792Z,21.70
2019-02-14T14:26:39.038Z,21.70
2019-02-14T14:29:07.269Z,21.70
2019-02-14T14:31:36.081Z,21.70
2019-02-14T14:34:04.310Z,21.70
2019-02-14T14:36:33.166Z,21.70
2019-02-14T14:39:01.437Z,21.70
2019-02-14T14:41:29.682Z,21.70
2019-02-14T14:44:02.746Z,21.70
2019-02-14T14:46:32.062Z,21.70
2019-02-14T14:49:00.298Z,21.70
2019-02-14T14:51:28.541Z,21.70
2019-02-14T14:53:56.778Z,21.70
2019-02-14T14:56:25.027Z,21.70
2019-02-14T14:58:53.253Z,21.70
2019-02-14T15:01:21.487Z,21.70
2019-02-14T15:03:49.731Z,21.70
2019-02-14T15:06:17.967Z,21.70
2019-02-14T15:08:46.222Z,21.70
2019-02-14T15:11:14.449Z,21.70
2019-02-14T15:13:42.690Z,21.70
2019-02-14T15:16:10.933Z,21.70
2019-02-14T15:18:39.173Z,21.70
2019-02-14T15:21:07.416Z,21.70
2019-02-14T15:23:35.666Z,21.70
2019-02-14T15:26:03.961Z,21.70
2019-02-14T15:28:32.292Z,21.70
2019-02-14T15:31:00.521Z,21.60
2019-02-14T15:33:28.773Z,21.70
2019-02-14T15:35:57.007Z,21.60
2019-02-14T15:38:25.251Z,21.60
2019-02-14T15:40:53.490Z,21.60
2019-02-14T15:43:21.731Z,21.60
2019-02-14T15:45:49.966Z,21.60
2019-02-14T15:48:18.780Z,21.60
2019-02-14T15:50:47.006Z,21.60
2019-02-14T15:53:16.950Z,21.60
2019-02-14T15:55:45.226Z,21.60
2019-02-14T15:58:13.470Z,21.50
2019-02-14T16:00:41.764Z,21.50
2019-02-14T16:03:09.993Z,21.50
2019-02-14T16:05:40.122Z,21.50
2019-02-14T16:08:08.197Z,21.50
2019-02-14T16:10:36.730Z,21.50
2019-02-14T16:13:05.884Z,21.50
2019-02-14T16:15:34.937Z,21.50
2019-02-14T16:18:03.173Z,21.50
2019-02-14T16:20:31.421Z,21.50
2019-02-14T16:22:59.651Z,21.50
2019-02-14T16:25:28.596Z,21.50
2019-02-14T16:27:57.855Z,21.40
2019-02-14T16:30:26.090Z,21.40
2019-02-14T16:32:54.327Z,21.40
2019-02-14T16:35:22.566Z,21.40
2019-02-14T16:37:50.798Z,21.40
2019-02-14T16:40:27.653Z,21.40
2019-02-14T16:42:49.006Z,21.40
2019-02-14T16:45:17.250Z,21.40
2019-02-14T16:47:45.774Z,21.40
2019-02-14T16:50:14.029Z,21.40
2019-02-14T16:52:42.530Z,21.40
2019-02-14T16:55:10.773Z,21.40
2019-02-14T16:57:39.009Z,21.40
2019-02-14T17:00:10.561Z,21.40
2019-02-14T17:02:39.361Z,21.40
2019-02-14T17:05:07.797Z,21.30
2019-02-14T17:07:36.082Z,21.30
2019-02-14T17:10:06.526Z,21.30
2019-02-14T17:12:35.426Z,21.30
2019-02-14T17:15:04.339Z,21.30
2019-02-14T17:17:32.570Z,21.30
2019-02-14T17:20:00.820Z,21.30
2019-02-14T17:22:29.045Z,21.30
2019-02-14T17:24:57.290Z,21.30
2019-02-14T17:27:25.521Z,21.30
2019-02-14T17:29:54.337Z,21.30
2019-02-14T17:32:22.565Z,21.30
2019-02-14T17:34:50.814Z,21.30
2019-02-14T17:37:19.046Z,21.30
2019-02-14T17:39:47.286Z,21.30
2019-02-14T17:42:15.535Z,21.30
2019-02-14T17:44:43.763Z,21.30
2019-02-14T17:47:12.016Z,21.30
2019-02-14T17:49:40.247Z,21.30
2019-02-14T17:52:08.487Z,21.30
2019-02-14T17:54:36.722Z,21.30
2019-02-14T17:57:05.633Z,21.30
2019-02-14T17:59:34.533Z,21.30
2019-02-14T18:02:02.778Z,21.30
2019-02-14T18:04:31.005Z,21.30
2019-02-14T18:06:59.254Z,21.30
2019-02-14T18:09:27.494Z,21.30
2019-02-14T18:11:55.738Z,21.30
2019-02-14T18:14:23.979Z,21.20
2019-02-14T18:16:52.210Z,21.20
2019-02-14T18:19:20.442Z,21.20
2019-02-14T18:21:48.681Z,21.20
2019-02-14T18:24:16.911Z,21.20
2019-02-14T18:26:45.150Z,21.20
2019-02-14T18:29:13.392Z,21.20
2019-02-14T18:31:41.630Z,21.20
2019-02-14T18:34:09.865Z,21.20
2019-02-14T18:36:38.105Z,21.20
2019-02-14T18:39:06.895Z,21.20
2019-02-14T18:41:35.454Z,21.20
2019-02-14T18:44:03.689Z,21.20
2019-02-14T18:46:31.934Z,21.20
2019-02-14T18:49:00.165Z,21.20
2019-02-14T18:51:28.969Z,21.20
2019-02-14T18:53:57.283Z,21.10
2019-02-14T18:56:25.522Z,21.10
2019-02-14T18:58:54.091Z,21.10
2019-02-14T19:01:22.321Z,21.10
2019-02-14T19:03:50.565Z,21.10
2019-02-14T19:06:18.799Z,21.10
2019-02-14T19:08:47.042Z,21.10
2019-02-14T19:11:15.604Z,21.10
2019-02-14T19:13:43.898Z,21.10
2019-02-14T19:16:12.128Z,21.10
2019-02-14T19:18:40.369Z,21.10
2019-02-14T19:21:08.674Z,21.10
2019-02-14T19:23:36.926Z,21.10
2019-02-14T19:26:05.171Z,21.10
2019-02-14T19:28:33.401Z,21.10
2019-02-14T19:31:01.629Z,21.10
2019-02-14T19:33:29.883Z,21.10
2019-02-14T19:35:58.113Z,21.10
2019-02-14T19:38:26.353Z,21.10
2019-02-14T19:40:54.584Z,21.10
2019-02-14T19:43:23.405Z,21.10
2019-02-14T19:45:52.312Z,21.10
2019-02-14T19:48:20.538Z,21.10
2019-02-14T19:50:48.777Z,21.10
2019-02-14T19:53:17.274Z,21.10
2019-02-14T19:55:45.521Z,21.00
2019-02-14T19:58:13.753Z,21.10
2019-02-14T20:00:41.991Z,21.10
2019-02-14T20:03:10.223Z,21.10
2019-02-14T20:05:38.468Z,21.10
2019-02-14T20:08:06.691Z,21.10
2019-02-14T20:10:35.202Z,21.10
2019-02-14T20:13:03.691Z,21.10
2019-02-14T20:15:37.325Z,21.10
2019-02-14T20:18:01.905Z,21.10
2019-02-14T20:20:30.152Z,21.00
2019-02-14T20:22:58.381Z,21.00
2019-02-14T20:25:28.566Z,21.00
2019-02-14T20:27:56.801Z,21.00
2019-02-14T20:30:25.042Z,21.00
2019-02-14T20:32:53.574Z,21.00
2019-02-14T20:35:21.809Z,21.00
2019-02-14T20:37:50.038Z,21.00
2019-02-14T20:40:18.278Z,21.00
2019-02-14T20:42:46.513Z,21.00
2019-02-14T20:45:14.927Z,21.00
2019-02-14T20:47:43.164Z,21.00
2019-02-14T20:50:12.934Z,21.00
2019-02-14T20:52:41.182Z,21.00
2019-02-14T20:55:12.433Z,21.00
2019-02-14T20:57:40.673Z,21.00
2019-02-14T21:00:12.398Z,21.00
2019-02-14T21:02:40.629Z,21.00
2019-02-14T21:05:08.865Z,21.00
2019-02-14T21:07:37.105Z,21.00
2019-02-14T21:10:06.879Z,21.00
2019-02-14T21:12:35.122Z,21.00
2019-02-14T21:15:03.359Z,21.00
2019-02-14T21:17:31.598Z,21.00
2019-02-14T21:20:00.461Z,21.00
2019-02-14T21:22:29.277Z,21.00
2019-02-14T21:24:58.185Z,21.00
2019-02-14T21:27:26.433Z,21.00
2019-02-14T21:29:55.685Z,21.00
2019-02-14T21:32:24.273Z,21.00
2019-02-14T21:34:52.583Z,21.00
2019-02-14T21:37:20.906Z,21.00
2019-02-14T21:39:49.216Z,21.00
2019-02-14T21:42:21.681Z,21.00
2019-02-14T21:44:47.542Z,21.00
2019-02-14T21:47:15.778Z,21.00
2019-02-14T21:49:44.019Z,21.00
2019-02-14T21:52:12.259Z,21.00
2019-02-14T21:54:40.498Z,21.00
2019-02-14T21:57:08.890Z,21.00
2019-02-14T21:59:37.644Z,21.00
2019-02-14T22:02:06.606Z,21.00
2019-02-14T22:04:35.289Z,21.00
2019-02-14T22:07:03.605Z,21.00
2019-02-14T22:09:31.910Z,21.00
2019-02-14T22:12:00.165Z,21.00
2019-02-14T22:14:28.398Z,21.00
2019-02-14T22:16:56.674Z,21.00
2019-02-14T22:19:24.958Z,21.00
2019-02-14T22:21:53.687Z,21.00
2019-02-14T22:24:21.906Z,20.90
2019-02-14T22:26:50.161Z,21.00
2019-02-14T22:29:18.414Z,21.00
2019-02-14T22:31:46.733Z,20.90
2019-02-14T22:34:14.961Z,20.90
2019-02-14T22:36:43.196Z,20.90
2019-02-14T22:39:11.433Z,20.90
2019-02-14T22:41:39.669Z,20.90
2019-02-14T22:44:07.914Z,20.90
2019-02-14T22:46:36.149Z,20.90
2019-02-14T22:49:04.393Z,20.90
2019-02-14T22:51:32.625Z,20.90
2019-02-14T22:54:00.870Z,20.90
2019-02-14T22:56:29.132Z,20.90
2019-02-14T22:58:57.365Z,20.90
2019-02-14T23:01:25.601Z,20.90
2019-02-14T23:03:53.846Z,21.00
2019-02-14T23:06:22.081Z,20.90
2019-02-14T23:08:50.326Z,21.00
2019-02-14T23:11:18.578Z,20.90
2019-02-14T23:13:46.818Z,20.90
2019-02-14T23:16:15.044Z,20.90
2019-02-14T23:18:43.289Z,20.90
2019-02-14T23:21:11.534Z,20.90
2019-02-14T23:23:39.769Z,20.90
2019-02-14T23:26:08.010Z,20.90
2019-02-14T23:28:36.260Z,20.90
2019-02-14T23:31:04.481Z,20.90
2019-02-14T23:33:32.725Z,20.90
2019-02-14T23:36:00.956Z,20.90
2019-02-14T23:38:29.197Z,20.90
2019-02-14T23:40:57.429Z,20.90
2019-02-14T23:43:25.665Z,20.90
2019-02-14T23:45:53.909Z,20.90
2019-02-14T23:48:22.165Z,20.90
2019-02-14T23:50:50.402Z,20.90
2019-02-14T23:53:18.634Z,20.90
2019-02-14T23:55:46.873Z,20.90
2019-02-14T23:58:15.115Z,20.90
